• Join FlightAware (Why Join?)
  • Login
  • US Flag 
02:21PM EDT


 

Airport Tracker/Info


-or-


 

Live Flight TrackerFlight Track Log ✈ N151SF ✈ 21-Jun-2013 ✈ KBNA - KRYY

Flight Track Log - Related Links

Times and Time Zones

All times are in EDT time to prevent confusion due to time zone crossing. See the N151SF flight status page for this flight to view local times or setup timezone preferences in your user account.

Time Position Orientation Groundspeed Altitude Reporting Facility
EDT Latitude Longitude Course Direction KTS MPH feet Rate Location/Type
10:22AM 36.0833 -86.6667 122° Southeast 78 90 1,500  Level Nashville TRACON
10:23AM 36.0667 -86.6333 122° Southeast 78 90 2,100 420 Climbing Nashville TRACON
10:24AM 36.0667 -86.6167 90° East 83 96 2,500 420 Climbing Nashville TRACON
10:25AM 36.0500 -86.6000 141° Southeast 79 91 3,000 480 Climbing Nashville TRACON
10:26AM 36.0333 -86.5833 141° Southeast 77 89 3,500 300 Climbing Nashville TRACON
10:27AM 36.0000 -86.5667 158° South 89 102 3,700  Climbing Nashville TRACON
10:28AM 35.9833 -86.5500 141° Southeast 110 127 3,600 -60 Descending Nashville TRACON
10:29AM 35.9667 -86.5167 122° Southeast 109 125 3,600  Level Nashville TRACON
10:30AM 35.9333 -86.5000 158° South 99 114 3,600  Level Nashville TRACON
10:31AM 35.9167 -86.4833 141° Southeast 100 115 3,600  Level Nashville TRACON
10:32AM 35.9000 -86.4500 122° Southeast 103 119 3,600  Level Nashville TRACON
10:33AM 35.8667 -86.4333 158° South 103 119 3,600  Level Nashville TRACON
10:34AM 35.8500 -86.4167 141° Southeast 103 119 3,600  Level Nashville TRACON
10:35AM 35.8333 -86.3833 122° Southeast 102 117 3,600 240 Level Nashville TRACON
10:36AM 35.8167 -86.3667 141° Southeast 91 105 4,100 420 Climbing Nashville TRACON
10:37AM 35.7936 -86.3492 148° Southeast 85 98 4,500 360 Climbing Memphis Center
10:38AM 35.7700 -86.3325 150° Southeast 85 98 4,900 360 Climbing Memphis Center
10:39AM 35.7528 -86.3153 141° Southeast 98 113 5,300 300 Climbing Memphis Center
10:40AM 35.7314 -86.2986 148° Southeast 90 104 5,500 120 Climbing Memphis Center
10:41AM 35.7078 -86.2817 150° Southeast 90 104 5,600  Climbing Memphis Center
10:42AM 35.6842 -86.2600 143° Southeast 96 110 5,500 -60 Descending Memphis Center
10:43AM 35.6625 -86.2331 135° Southeast 108 124 5,500  Level Memphis Center
10:44AM 35.6408 -86.2083 137° Southeast 108 124 5,500  Level Memphis Center
10:45AM 35.6172 -86.1892 147° Southeast 108 124 5,500  Level Memphis Center
10:46AM 35.5956 -86.1622 135° Southeast 118 136 5,500  Level Memphis Center
10:47AM 35.5758 -86.1378 135° Southeast 112 129 5,500  Level Memphis Center
10:48AM 35.5522 -86.1133 140° Southeast 112 129 5,500  Level Memphis Center
10:49AM 35.5325 -86.0889 135° Southeast 112 129 5,600 60 Climbing Memphis Center
10:50AM 35.5086 -86.0647 141° Southeast 107 123 5,700  Climbing Memphis Center
10:51AM 35.4869 -86.0403 137° Southeast 107 123 5,600 -60 Descending Memphis Center
10:52AM 35.4653 -86.0158 137° Southeast 107 123 5,600  Level Memphis Center
10:53AM 35.4417 -85.9942 143° Southeast 107 123 5,600 -60 Level Memphis Center
10:54AM 35.4200 -85.9697 137° Southeast 107 123 5,500 -60 Descending Memphis Center
10:55AM 35.3961 -85.9456 140° Southeast 107 123 5,500  Level Memphis Center
10:56AM 35.3725 -85.9239 143° Southeast 107 123 5,600  Climbing Memphis Center
10:57AM 35.3486 -85.9050 147° Southeast 107 123 5,600  Level Memphis Center
10:58AM 35.3250 -85.8808 140° Southeast 107 123 5,600  Level Memphis Center
10:59AM 35.3033 -85.8564 137° Southeast 107 123 5,600  Level Memphis Center
11:01AM 35.2506 -85.8027 140° Southeast  Level FlightAware Approximate
11:08AM 35.0535 -85.6048 141° Southeast  Level FlightAware Approximate
11:09AM 35.0251 -85.5770 141° Southeast  Level FlightAware Approximate
11:10AM 34.9967 -85.5492 141° Southeast  Level FlightAware Approximate
11:11AM 34.9682 -85.5215 141° Southeast  Level FlightAware Approximate
11:12AM 34.9398 -85.4937 141° Southeast  Level FlightAware Approximate
11:13AM 34.9113 -85.4660 141° Southeast  Level FlightAware Approximate
11:14AM 34.8829 -85.4383 141° Southeast  Level FlightAware Approximate
11:15AM 34.8544 -85.4106 141° Southeast  Level FlightAware Approximate